Time;durP1;ratioP1;P1;durP2;ratioP2;P2;SDS_P1;SDS_P2;PMS_P1;PMS_P2;Temp;Humidity;BMP_temperature;BMP_pressure;BME280_temperature;BME280_humidity;BME280_pressure;Samples;Min_cycle;Max_cycle;Signal;HPM_P1;HPM_P2
2022/07/21 00:00:22;;;;;;;14.27;12.87;;;21.60;98.80;;;;;;5104846;28;20439;-77
2022/07/21 00:02:53;;;;;;;14.97;12.40;;;21.60;98.20;;;;;;5087568;28;20535;-77
2022/07/21 00:05:20;;;;;;;14.10;12.07;;;21.60;97.80;;;;;;5104964;28;20438;-78
2022/07/21 00:07:48;;;;;;;15.40;12.43;;;21.60;96.20;;;;;;5117942;28;20460;-78
2022/07/21 00:10:17;;;;;;;13.97;12.17;;;21.60;96.10;;;;;;5118035;28;20470;-78
2022/07/21 00:12:44;;;;;;;12.77;11.53;;;21.60;95.90;;;;;;5119141;28;20484;-78
2022/07/21 00:15:12;;;;;;;14.63;12.97;;;21.50;96.10;;;;;;5117077;28;20501;-78
2022/07/21 00:17:39;;;;;;;14.50;12.47;;;21.40;96.70;;;;;;5116079;28;20499;-78
2022/07/21 00:20:08;;;;;;;12.73;11.53;;;21.30;97.10;;;;;;5096442;28;20794;-78
2022/07/21 00:22:36;;;;;;;13.20;11.90;;;21.40;96.80;;;;;;5093332;28;20471;-79
2022/07/21 00:25:03;;;;;;;13.67;12.23;;;21.20;96.60;;;;;;5109815;28;20532;-78
2022/07/21 00:27:31;;;;;;;15.03;11.73;;;21.20;96.90;;;;;;5114231;28;20439;-79
2022/07/21 00:29:58;;;;;;;12.87;11.77;;;21.20;97.30;;;;;;5115084;28;20452;-80
2022/07/21 00:32:26;;;;;;;13.20;11.83;;;21.20;97.50;;;;;;5107461;28;20541;-76
2022/07/21 00:34:53;;;;;;;12.80;11.70;;;21.20;97.70;;;;;;5105039;28;20738;-78
2022/07/21 00:37:23;;;;;;;12.57;11.37;;;21.10;98.20;;;;;;5103455;28;20457;-76
2022/07/21 00:39:50;;;;;;;12.77;11.57;;;21.10;98.10;;;;;;5094309;28;20449;-79
2022/07/21 00:42:22;;;;;;;12.23;11.03;;;21.00;97.90;;;;;;5090343;28;20478;-80
2022/07/21 00:44:50;;;;;;;11.93;10.70;;;21.10;98.10;;;;;;5099869;28;20470;-78
2022/07/21 00:47:20;;;;;;;12.10;11.00;;;21.20;97.40;;;;;;5102218;28;21097;-78
2022/07/21 00:49:47;;;;;;;13.10;11.90;;;21.10;96.40;;;;;;5099644;28;20795;-78
2022/07/21 00:52:14;;;;;;;12.47;11.20;;;21.00;96.60;;;;;;5100674;28;20561;-77
2022/07/21 00:54:41;;;;;;;13.00;11.80;;;21.00;97.20;;;;;;5099535;28;20449;-77
2022/07/21 00:57:08;;;;;;;12.00;10.83;;;20.90;97.10;;;;;;5099320;28;20452;-78
2022/07/21 00:59:35;;;;;;;13.10;11.50;;;20.90;97.60;;;;;;5100301;28;20526;-78
2022/07/21 01:02:04;;;;;;;11.67;10.67;;;20.90;97.40;;;;;;5098862;28;20762;-78
2022/07/21 01:04:31;;;;;;;12.13;10.57;;;20.90;97.60;;;;;;5099289;28;20453;-79
2022/07/21 01:06:58;;;;;;;12.63;11.57;;;20.80;98.20;;;;;;5109123;28;20426;-79
2022/07/21 01:09:25;;;;;;;12.40;11.20;;;20.80;99.50;;;;;;5108578;28;20967;-78
2022/07/21 01:11:52;;;;;;;12.80;11.70;;;20.70;99.30;;;;;;5107692;28;20491;-78
2022/07/21 01:14:19;;;;;;;11.20;10.07;;;20.70;99.40;;;;;;5105612;28;20491;-79
2022/07/21 01:16:47;;;;;;;11.90;10.87;;;20.70;99.90;;;;;;5107479;28;20431;-81
2022/07/21 01:19:15;;;;;;;14.60;11.40;;;20.60;99.90;;;;;;5105219;28;20486;-78
2022/07/21 01:21:45;;;;;;;13.07;11.43;;;20.60;99.90;;;;;;5103992;28;20523;-79
2022/07/21 01:24:12;;;;;;;13.03;11.50;;;20.60;99.90;;;;;;5103139;28;20516;-79
2022/07/21 01:26:43;;;;;;;12.43;11.23;;;20.60;99.90;;;;;;5101961;28;20445;-78
2022/07/21 01:29:11;;;;;;;13.50;11.27;;;20.70;99.90;;;;;;5100947;28;20455;-79
2022/07/21 01:31:40;;;;;;;14.93;11.53;;;20.70;99.90;;;;;;5100219;28;20509;-78
2022/07/21 01:34:08;;;;;;;11.50;10.47;;;20.70;99.90;;;;;;5102695;28;20936;-79
2022/07/21 01:36:35;;;;;;;13.00;11.70;;;20.70;99.90;;;;;;5099952;28;20451;-79
2022/07/21 01:41:48;;;;;;;13.00;10.50;;;20.70;99.30;;;;;;5100576;28;20511;-78
2022/07/21 01:44:15;;;;;;;12.53;10.10;;;20.70;99.30;;;;;;5101168;28;20458;-79
2022/07/21 01:46:44;;;;;;;11.97;10.80;;;20.70;98.80;;;;;;5100506;28;20433;-78
2022/07/21 01:49:13;;;;;;;12.37;11.23;;;20.70;98.60;;;;;;5105782;28;20426;-78
2022/07/21 01:51:40;;;;;;;11.90;10.80;;;20.70;98.90;;;;;;5103869;28;20486;-78
2022/07/21 01:54:09;;;;;;;11.93;10.80;;;20.70;98.50;;;;;;5102117;28;20526;-78
2022/07/21 01:56:37;;;;;;;11.67;10.60;;;20.80;98.50;;;;;;5099733;28;20452;-78
2022/07/21 01:59:05;;;;;;;10.93;9.93;;;20.70;98.40;;;;;;5108397;28;20425;-77
2022/07/21 02:01:33;;;;;;;11.53;10.43;;;20.80;98.20;;;;;;5104067;28;20454;-79
2022/07/21 02:04:03;;;;;;;11.80;10.70;;;20.80;97.70;;;;;;5103578;28;20453;-79
2022/07/21 02:06:30;;;;;;;12.20;11.00;;;20.80;97.60;;;;;;5099261;28;20453;-79
2022/07/21 02:08:57;;;;;;;13.27;10.30;;;20.80;97.60;;;;;;5099576;28;20478;-79
2022/07/21 02:11:25;;;;;;;12.00;11.07;;;20.80;98.10;;;;;;5098518;28;20458;-78
2022/07/21 02:13:52;;;;;;;11.40;10.40;;;20.90;97.60;;;;;;5099667;28;20429;-79
2022/07/21 02:16:19;;;;;;;13.50;11.47;;;20.80;97.60;;;;;;5099495;28;20547;-78
2022/07/21 02:18:46;;;;;;;11.90;10.47;;;20.80;97.60;;;;;;5098727;28;20469;-78
2022/07/21 02:21:13;;;;;;;11.90;10.80;;;20.80;97.60;;;;;;5106097;28;20443;-78
2022/07/21 02:23:40;;;;;;;12.97;11.87;;;20.80;96.90;;;;;;5101131;28;20418;-78
2022/07/21 02:26:08;;;;;;;12.50;11.23;;;20.80;97.50;;;;;;5101056;28;20468;-79
2022/07/21 02:28:36;;;;;;;14.33;11.70;;;20.90;96.90;;;;;;5107731;28;20498;-80
2022/07/21 02:31:03;;;;;;;14.73;11.20;;;20.80;96.70;;;;;;5100896;28;20513;-79
2022/07/21 02:33:30;;;;;;;16.20;12.80;;;20.80;97.20;;;;;;5103701;28;20459;-79
2022/07/21 02:35:58;;;;;;;13.90;11.53;;;20.80;96.50;;;;;;5101528;28;20475;-79
2022/07/21 02:38:25;;;;;;;11.37;10.27;;;20.80;96.90;;;;;;5102608;28;20436;-79
2022/07/21 02:40:52;;;;;;;13.63;12.23;;;20.90;95.80;;;;;;5112418;28;20422;-81
2022/07/21 02:43:19;;;;;;;12.20;10.80;;;20.90;95.80;;;;;;5108654;28;20419;-78
2022/07/21 02:45:47;;;;;;;12.70;11.53;;;20.90;95.80;;;;;;5113851;28;20490;-78
2022/07/21 02:48:15;;;;;;;11.70;10.63;;;20.90;95.80;;;;;;5100803;28;20779;-79
2022/07/21 02:50:44;;;;;;;12.73;11.43;;;21.00;95.70;;;;;;5098764;28;20509;-78
2022/07/21 02:53:12;;;;;;;12.97;11.77;;;21.00;95.70;;;;;;5098598;28;20532;-77
2022/07/21 02:55:40;;;;;;;15.00;11.93;;;21.00;95.30;;;;;;5100806;28;20489;-77
2022/07/21 02:58:10;;;;;;;13.47;12.03;;;20.90;95.80;;;;;;5101258;28;20455;-78
2022/07/21 03:00:40;;;;;;;13.73;12.37;;;20.90;95.80;;;;;;5104631;28;20451;-79
2022/07/21 03:03:08;;;;;;;12.60;11.50;;;20.90;95.80;;;;;;5105234;28;20426;-79
2022/07/21 03:05:36;;;;;;;13.97;12.67;;;21.00;95.80;;;;;;5108693;28;20472;-79
2022/07/21 03:08:04;;;;;;;14.43;13.03;;;21.00;95.80;;;;;;5104951;28;20456;-79
2022/07/21 03:10:31;;;;;;;13.40;12.10;;;21.00;95.80;;;;;;5098254;28;20500;-78
2022/07/21 03:12:58;;;;;;;15.13;13.50;;;20.90;95.80;;;;;;5099209;28;20472;-78
2022/07/21 03:15:26;;;;;;;14.97;13.23;;;21.00;95.80;;;;;;5098974;28;20450;-78
2022/07/21 03:17:53;;;;;;;16.57;15.03;;;21.00;95.90;;;;;;5098251;28;20484;-78
2022/07/21 03:20:23;;;;;;;14.80;13.40;;;21.00;95.90;;;;;;5098376;28;20588;-77
2022/07/21 03:22:50;;;;;;;14.87;13.47;;;21.00;95.80;;;;;;5099597;28;20892;-79
2022/07/21 03:25:17;;;;;;;15.40;13.90;;;20.90;95.80;;;;;;5103992;28;20482;-78
2022/07/21 03:28:00;;;;;;;13.37;12.07;;;20.90;96.50;;;;;;5108587;28;20414;-79
2022/07/21 03:30:28;;;;;;;16.23;14.53;;;20.80;97.10;;;;;;5109585;28;20395;-77
2022/07/21 03:32:55;;;;;;;15.00;13.50;;;20.80;97.60;;;;;;5108279;28;20534;-78
2022/07/21 03:35:24;;;;;;;15.13;13.73;;;20.80;97.60;;;;;;5105431;28;20473;-79
2022/07/21 03:37:52;;;;;;;16.07;14.57;;;20.80;98.10;;;;;;5112058;28;20437;-77
2022/07/21 03:40:23;;;;;;;15.47;13.93;;;20.80;98.00;;;;;;5117478;28;20447;-78
2022/07/21 03:42:50;;;;;;;15.00;13.57;;;20.80;97.80;;;;;;5117334;28;20494;-78
2022/07/21 03:45:17;;;;;;;16.90;15.20;;;20.80;97.90;;;;;;5117013;28;20463;-76
2022/07/21 03:47:44;;;;;;;15.47;13.43;;;20.80;97.80;;;;;;5117117;28;20431;-77
2022/07/21 03:50:12;;;;;;;14.43;13.13;;;20.90;98.20;;;;;;5116753;28;20430;-78
2022/07/21 03:52:41;;;;;;;15.23;13.30;;;20.90;98.30;;;;;;5113411;28;20494;-77
2022/07/21 03:55:08;;;;;;;14.73;13.50;;;20.80;98.30;;;;;;5112677;28;20502;-79
2022/07/21 03:57:37;;;;;;;15.30;13.60;;;20.70;98.70;;;;;;5113136;28;20463;-78
2022/07/21 04:00:08;;;;;;;15.97;14.30;;;20.70;99.30;;;;;;5110372;28;20469;-78
2022/07/21 04:02:51;;;;;;;14.67;13.37;;;20.80;99.30;;;;;;5107360;28;20458;-78
2022/07/21 04:05:19;;;;;;;14.07;12.57;;;20.70;99.30;;;;;;5102406;28;20578;-79
2022/07/21 04:07:50;;;;;;;16.10;14.40;;;20.70;99.80;;;;;;5098310;28;20432;-78
2022/07/21 04:10:21;;;;;;;17.53;14.57;;;20.70;99.90;;;;;;5098211;28;20463;-79
2022/07/21 04:12:49;;;;;;;14.77;13.20;;;20.80;99.40;;;;;;5096849;28;20482;-79
2022/07/21 04:15:17;;;;;;;15.70;14.13;;;20.80;99.40;;;;;;5101276;28;20878;-78
2022/07/21 04:17:44;;;;;;;15.37;13.87;;;20.90;99.00;;;;;;5103963;28;20463;-78
2022/07/21 04:20:13;;;;;;;15.40;13.90;;;20.90;99.00;;;;;;5110795;28;20500;-77
2022/07/21 04:22:41;;;;;;;16.20;14.50;;;20.90;98.90;;;;;;5111008;28;20418;-77
2022/07/21 04:25:10;;;;;;;15.40;13.90;;;21.00;98.40;;;;;;5102400;28;20888;-77
2022/07/21 04:27:38;;;;;;;16.47;14.77;;;21.00;97.80;;;;;;5100562;28;20500;-78
2022/07/21 04:30:07;;;;;;;17.60;15.93;;;21.00;97.90;;;;;;5099374;28;20532;-77
2022/07/21 04:32:34;;;;;;;15.90;14.30;;;21.00;97.30;;;;;;5101652;28;20481;-79
2022/07/21 04:35:01;;;;;;;15.00;13.57;;;21.10;96.40;;;;;;5100979;28;20533;-79
2022/07/21 04:37:28;;;;;;;17.80;16.07;;;21.10;95.90;;;;;;5102333;28;20455;-78
2022/07/21 04:39:55;;;;;;;16.80;14.90;;;21.20;95.60;;;;;;5102738;28;20452;-79
2022/07/21 04:42:23;;;;;;;14.67;13.30;;;21.20;95.60;;;;;;5101275;28;20443;-78
2022/07/21 04:44:50;;;;;;;17.33;14.40;;;21.30;95.40;;;;;;5105074;28;20471;-79
2022/07/21 04:47:17;;;;;;;15.57;14.17;;;21.40;94.20;;;;;;5108272;28;20425;-77
2022/07/21 04:49:44;;;;;;;16.67;14.93;;;21.40;94.00;;;;;;5118380;28;20490;-76
2022/07/21 04:52:11;;;;;;;16.93;14.63;;;21.60;92.50;;;;;;5118687;28;20559;-76
2022/07/21 04:54:38;;;;;;;14.87;13.50;;;21.60;92.00;;;;;;5119410;28;20484;-76
2022/07/21 04:57:05;;;;;;;16.97;15.27;;;21.70;91.10;;;;;;5107491;28;20447;-79
2022/07/21 04:59:34;;;;;;;17.13;15.30;;;21.80;90.20;;;;;;5106530;28;20463;-79
2022/07/21 05:02:02;;;;;;;16.57;14.67;;;22.00;88.50;;;;;;5108863;28;20525;-77
2022/07/21 05:04:29;;;;;;;15.50;14.00;;;22.10;86.40;;;;;;5108754;28;20547;-78
2022/07/21 05:06:57;;;;;;;16.60;15.10;;;22.30;84.30;;;;;;5113259;28;20456;-79
2022/07/21 05:09:24;;;;;;;16.67;14.97;;;22.50;83.40;;;;;;5116663;28;20445;-77
2022/07/21 05:11:50;;;;;;;15.90;14.23;;;22.90;79.20;;;;;;5118812;28;20506;-76
2022/07/21 05:14:17;;;;;;;16.00;14.30;;;23.30;75.10;;;;;;5118853;27;20466;-77
2022/07/21 05:16:45;;;;;;;14.63;13.00;;;23.50;71.00;;;;;;5119024;28;20484;-77
2022/07/21 05:19:12;;;;;;;14.53;13.30;;;23.50;70.30;;;;;;5118337;28;20805;-77
2022/07/21 05:21:39;;;;;;;19.83;16.07;;;23.20;70.70;;;;;;5117781;28;20443;-77
2022/07/21 05:24:07;;;;;;;17.10;15.33;;;23.00;72.80;;;;;;5117617;28;20450;-78
2022/07/21 05:26:34;;;;;;;16.00;14.50;;;22.80;73.80;;;;;;5116680;28;20511;-78
2022/07/21 05:29:00;;;;;;;16.37;14.67;;;22.60;76.60;;;;;;5117832;28;20565;-76
2022/07/21 05:31:27;;;;;;;18.53;15.57;;;22.40;77.60;;;;;;5116037;28;20453;-79
2022/07/21 05:33:55;;;;;;;19.27;15.27;;;22.30;79.50;;;;;;5111214;28;20575;-79
2022/07/21 05:36:22;;;;;;;16.83;14.80;;;22.30;79.00;;;;;;5106879;28;20554;-80
2022/07/21 05:38:49;;;;;;;16.40;14.00;;;22.40;77.90;;;;;;5105905;28;20449;-79
2022/07/21 05:41:16;;;;;;;15.53;13.93;;;22.50;77.10;;;;;;5103361;28;20457;-78
2022/07/21 05:43:43;;;;;;;16.87;15.17;;;22.60;76.80;;;;;;5104381;28;20452;-79
2022/07/21 05:46:10;;;;;;;16.37;14.67;;;22.70;75.70;;;;;;5100475;28;20996;-79
2022/07/21 05:48:37;;;;;;;16.43;14.70;;;22.60;75.40;;;;;;5102556;28;20558;-78
2022/07/21 05:51:06;;;;;;;16.20;14.80;;;22.60;74.70;;;;;;5100559;28;20766;-78
2022/07/21 05:53:33;;;;;;;15.90;14.30;;;22.50;75.20;;;;;;5101531;28;20497;-78
2022/07/21 05:56:00;;;;;;;14.77;13.37;;;22.50;75.30;;;;;;5102029;28;20542;-79
2022/07/21 05:58:26;;;;;;;16.87;15.07;;;22.50;76.10;;;;;;5098853;28;20519;-79
2022/07/21 06:01:09;;;;;;;15.13;13.70;;;22.40;75.10;;;;;;5112454;28;20440;-77
2022/07/21 06:03:37;;;;;;;17.30;15.70;;;22.40;76.30;;;;;;5108213;28;20435;-77
2022/07/21 06:06:05;;;;;;;15.50;13.97;;;22.40;75.10;;;;;;5111369;28;20504;-78
2022/07/21 06:08:32;;;;;;;15.97;14.50;;;22.30;76.70;;;;;;5107262;28;20430;-78
2022/07/21 06:11:00;;;;;;;15.93;14.27;;;22.30;77.90;;;;;;5112855;28;20485;-77
2022/07/21 06:13:27;;;;;;;15.37;13.80;;;22.80;78.00;;;;;;5112529;28;20461;-78
2022/07/21 06:15:54;;;;;;;15.20;13.90;;;23.70;71.20;;;;;;5108202;28;20534;-77
2022/07/21 06:18:21;;;;;;;14.00;12.73;;;24.50;64.40;;;;;;5107037;28;20439;-78
2022/07/21 06:20:48;;;;;;;13.23;11.90;;;25.30;61.10;;;;;;5108423;28;20532;-79
2022/07/21 06:23:16;;;;;;;12.93;11.70;;;25.70;57.60;;;;;;5111505;28;20522;-78
2022/07/21 06:25:43;;;;;;;12.60;11.30;;;26.00;56.40;;;;;;5106030;28;20494;-78
2022/07/21 06:28:10;;;;;;;13.00;10.97;;;26.50;54.60;;;;;;5103997;28;20487;-77
2022/07/21 06:30:37;;;;;;;12.90;11.80;;;26.90;53.00;;;;;;5105788;28;20463;-78
2022/07/21 06:33:04;;;;;;;13.00;11.80;;;26.90;52.40;;;;;;5107992;28;20566;-76
2022/07/21 06:35:31;;;;;;;11.90;10.90;;;26.80;52.30;;;;;;5099992;28;20490;-79
2022/07/21 06:37:58;;;;;;;12.30;11.20;;;26.80;52.00;;;;;;5109309;28;20458;-78
2022/07/21 06:40:26;;;;;;;13.07;11.67;;;27.10;51.10;;;;;;5102341;28;20459;-77
2022/07/21 06:42:53;;;;;;;11.33;10.43;;;27.10;50.80;;;;;;5099529;28;20474;-78
2022/07/21 06:45:20;;;;;;;10.97;10.00;;;27.20;49.70;;;;;;5113460;28;20465;-76
2022/07/21 06:47:47;;;;;;;10.33;9.10;;;27.50;48.30;;;;;;5116505;28;20416;-77
2022/07/21 06:50:14;;;;;;;12.63;10.10;;;27.40;48.00;;;;;;5115396;28;20477;-78
2022/07/21 06:52:41;;;;;;;9.10;8.40;;;27.40;47.40;;;;;;5101825;28;20535;-78
2022/07/21 06:55:09;;;;;;;9.40;8.50;;;27.40;46.90;;;;;;5099522;28;20479;-77
2022/07/21 06:57:37;;;;;;;10.40;9.40;;;27.10;45.60;;;;;;5100393;28;20456;-77
2022/07/21 07:00:06;;;;;;;11.90;10.27;;;26.00;49.70;;;;;;5103318;28;20422;-78
2022/07/21 07:02:33;;;;;;;9.80;8.90;;;25.30;52.40;;;;;;5101384;28;20800;-78
2022/07/21 07:04:59;;;;;;;9.70;8.80;;;24.60;54.60;;;;;;5107602;28;20466;-76
2022/07/21 07:07:26;;;;;;;11.33;7.93;;;24.40;55.30;;;;;;5112320;28;20577;-77
2022/07/21 07:09:53;;;;;;;9.13;8.33;;;24.40;55.10;;;;;;5112066;28;20920;-79
2022/07/21 07:12:20;;;;;;;9.70;8.87;;;24.60;54.50;;;;;;5113299;28;20503;-77
2022/07/21 07:14:48;;;;;;;8.97;8.07;;;24.50;53.30;;;;;;5109681;28;20493;-77
2022/07/21 07:17:17;;;;;;;9.83;8.83;;;24.30;55.20;;;;;;5101790;28;20447;-77
2022/07/21 07:19:43;;;;;;;10.87;9.30;;;24.40;55.40;;;;;;5102614;28;20449;-77
2022/07/21 07:22:10;;;;;;;9.83;8.93;;;24.40;55.30;;;;;;5097650;28;20823;-79
2022/07/21 07:24:37;;;;;;;9.90;9.07;;;24.30;55.10;;;;;;5098695;28;20471;-76
2022/07/21 07:27:04;;;;;;;10.83;9.40;;;24.10;56.40;;;;;;5097155;28;20466;-77
2022/07/21 07:29:31;;;;;;;10.27;9.43;;;24.10;55.60;;;;;;5109023;28;20466;-77
2022/07/21 07:31:59;;;;;;;9.80;8.90;;;24.20;55.20;;;;;;5109956;28;20451;-78
2022/07/21 07:34:26;;;;;;;9.03;8.17;;;24.30;55.50;;;;;;5080387;28;20495;-78
2022/07/21 07:36:53;;;;;;;9.83;8.63;;;24.50;54.70;;;;;;5087877;28;20545;-77
2022/07/21 07:39:20;;;;;;;10.00;8.93;;;24.50;53.90;;;;;;5108885;28;20530;-77
2022/07/21 07:41:47;;;;;;;9.10;8.20;;;24.40;53.30;;;;;;5108647;28;20468;-78
2022/07/21 07:44:14;;;;;;;10.93;8.80;;;24.60;53.20;;;;;;5099256;28;20451;-78
2022/07/21 07:46:41;;;;;;;8.53;7.93;;;24.70;52.30;;;;;;5110256;28;20447;-77
2022/07/21 07:49:09;;;;;;;10.00;9.10;;;24.60;52.50;;;;;;5116829;28;20519;-78
2022/07/21 07:51:36;;;;;;;10.40;8.70;;;24.50;53.10;;;;;;5119000;28;20546;-79
2022/07/21 07:54:03;;;;;;;11.90;9.03;;;24.70;51.90;;;;;;5118448;28;20507;-77
2022/07/21 07:56:30;;;;;;;11.30;8.70;;;24.70;52.00;;;;;;5118171;28;20490;-76
2022/07/21 07:58:57;;;;;;;8.60;7.80;;;24.90;51.70;;;;;;5117880;28;20501;-76
2022/07/21 08:01:24;;;;;;;11.47;8.73;;;24.80;51.30;;;;;;5104129;28;20429;-77
2022/07/21 08:03:51;;;;;;;9.63;8.77;;;25.10;50.00;;;;;;5097152;28;20462;-77
2022/07/21 08:06:20;;;;;;;8.53;7.73;;;25.60;48.30;;;;;;5099938;28;20445;-77
2022/07/21 08:08:46;;;;;;;9.13;8.23;;;25.70;47.40;;;;;;5107816;28;20444;-75
2022/07/21 08:11:16;;;;;;;9.03;8.23;;;25.60;48.00;;;;;;5116023;28;20449;-76
2022/07/21 08:13:43;;;;;;;11.87;9.10;;;25.70;47.50;;;;;;5113879;28;20533;-78
2022/07/21 08:16:12;;;;;;;9.50;8.43;;;25.60;47.80;;;;;;5104174;28;20453;-79
2022/07/21 08:18:39;;;;;;;9.10;8.10;;;25.60;46.70;;;;;;5103924;28;20430;-79
2022/07/21 08:21:06;;;;;;;8.33;7.63;;;26.00;46.20;;;;;;5102127;28;20530;-78
2022/07/21 08:23:34;;;;;;;9.27;8.37;;;26.60;44.60;;;;;;5103990;28;20426;-79
2022/07/21 08:26:01;;;;;;;8.90;8.00;;;26.70;44.70;;;;;;5106886;28;20475;-79
2022/07/21 08:28:28;;;;;;;9.80;8.90;;;26.90;42.90;;;;;;5102847;28;20434;-77
2022/07/21 08:30:55;;;;;;;8.73;7.93;;;26.80;43.20;;;;;;5100745;28;20424;-78
2022/07/21 08:33:22;;;;;;;8.93;8.13;;;26.80;43.20;;;;;;5101295;28;20875;-79
2022/07/21 08:35:49;;;;;;;9.37;8.50;;;26.60;44.60;;;;;;5100946;28;20475;-77
2022/07/21 08:38:15;;;;;;;9.53;8.73;;;26.00;44.70;;;;;;5089100;28;20443;-76
2022/07/21 08:40:45;;;;;;;8.53;7.83;;;26.00;45.20;;;;;;5092278;28;20751;-77
2022/07/21 08:43:22;;;;;;;9.47;8.57;;;26.10;45.20;;;;;;5095555;28;20474;-78
2022/07/21 08:45:50;;;;;;;9.17;8.27;;;26.20;44.40;;;;;;5079335;28;20503;-79
2022/07/21 08:48:24;;;;;;;8.93;8.17;;;26.30;44.40;;;;;;5094062;28;20423;-80
2022/07/21 08:50:52;;;;;;;9.37;8.47;;;26.20;44.30;;;;;;5096947;28;20737;-78
2022/07/21 08:53:19;;;;;;;10.67;8.53;;;25.80;45.60;;;;;;5103537;28;20468;-78
2022/07/21 08:55:48;;;;;;;10.30;9.30;;;25.60;46.40;;;;;;5098430;28;20478;-78
2022/07/21 08:58:15;;;;;;;10.77;9.67;;;25.50;47.50;;;;;;5086102;28;20441;-77
2022/07/21 09:00:45;;;;;;;9.70;8.80;;;25.60;48.40;;;;;;5092783;28;20785;-77
2022/07/21 09:03:15;;;;;;;13.00;9.50;;;26.20;47.80;;;;;;5100280;28;20454;-74
2022/07/21 09:05:43;;;;;;;11.03;9.93;;;26.70;45.90;;;;;;5109531;28;20442;-76
2022/07/21 09:08:10;;;;;;;9.47;8.67;;;27.10;45.00;;;;;;5111939;28;20472;-73
2022/07/21 09:10:40;;;;;;;9.07;8.13;;;27.10;43.40;;;;;;5105738;28;20487;-77
2022/07/21 09:13:09;;;;;;;9.87;8.93;;;26.60;44.70;;;;;;5088486;28;20505;-76
2022/07/21 09:15:41;;;;;;;10.17;9.20;;;26.70;44.70;;;;;;5089516;28;20440;-79
2022/07/21 09:18:13;;;;;;;10.20;9.20;;;26.80;43.60;;;;;;5087828;28;20910;-77
2022/07/21 09:20:46;;;;;;;9.50;8.60;;;26.40;44.10;;;;;;5076376;28;20428;-74
2022/07/21 09:23:15;;;;;;;10.10;8.60;;;26.30;43.60;;;;;;5087696;28;20858;-75
2022/07/21 09:25:43;;;;;;;10.50;8.50;;;26.10;44.20;;;;;;5095166;28;20899;-75
2022/07/21 09:28:14;;;;;;;9.33;8.43;;;26.10;44.20;;;;;;5091301;28;20422;-75
2022/07/21 09:30:59;;;;;;;8.60;7.90;;;26.10;42.80;;;;;;5082548;28;20871;-76
2022/07/21 09:33:31;;;;;;;8.13;7.10;;;26.20;43.10;;;;;;5081130;28;21436;-77
2022/07/21 09:36:05;;;;;;;7.87;7.17;;;26.20;41.00;;;;;;5099649;28;20799;-78
2022/07/21 09:38:34;;;;;;;7.60;7.00;;;26.20;40.70;;;;;;5097193;28;20470;-77
2022/07/21 09:41:09;;;;;;;7.70;7.00;;;26.10;40.80;;;;;;5098993;28;20496;-77
2022/07/21 09:43:44;;;;;;;7.30;6.70;;;26.10;40.70;;;;;;5085984;28;20450;-77
2022/07/21 09:46:13;;;;;;;7.00;6.50;;;26.20;40.50;;;;;;5081549;28;20475;-78
2022/07/21 09:48:42;;;;;;;11.20;6.60;;;26.20;40.40;;;;;;5092113;28;20544;-76
2022/07/21 09:51:30;;;;;;;7.00;6.40;;;26.40;39.80;;;;;;5101016;28;20452;-77
2022/07/21 09:54:02;;;;;;;8.60;7.17;;;26.70;39.60;;;;;;5102723;28;20524;-77
2022/07/21 09:56:31;;;;;;;6.40;5.80;;;27.10;38.10;;;;;;5107086;28;20446;-76
2022/07/21 09:59:00;;;;;;;6.87;6.37;;;27.10;37.50;;;;;;5104521;28;20453;-76
2022/07/21 10:01:29;;;;;;;6.90;6.30;;;27.20;37.20;;;;;;5108450;28;20474;-75
2022/07/21 10:03:57;;;;;;;6.70;6.10;;;27.60;35.70;;;;;;5105907;28;20450;-77
2022/07/21 10:06:27;;;;;;;6.67;6.17;;;27.60;35.00;;;;;;5097990;28;20847;-77
2022/07/21 10:08:54;;;;;;;6.67;6.07;;;27.50;34.90;;;;;;5096995;28;20806;-77
2022/07/21 10:11:22;;;;;;;6.73;6.00;;;27.10;35.70;;;;;;5099766;28;20447;-76
2022/07/21 10:13:49;;;;;;;6.47;5.87;;;26.80;36.80;;;;;;5093119;28;20477;-76
2022/07/21 10:16:18;;;;;;;7.07;6.47;;;26.70;37.00;;;;;;5098277;28;20445;-77
2022/07/21 10:18:59;;;;;;;8.00;7.03;;;26.70;37.60;;;;;;5093086;28;20459;-77
2022/07/21 10:21:36;;;;;;;6.33;5.83;;;27.00;36.60;;;;;;5094458;28;20581;-76
2022/07/21 10:24:04;;;;;;;5.90;5.47;;;27.20;35.60;;;;;;5102598;28;20446;-77
2022/07/21 10:26:31;;;;;;;5.63;5.10;;;27.10;35.30;;;;;;5101361;28;20454;-78
2022/07/21 10:28:58;;;;;;;5.50;5.00;;;26.90;34.50;;;;;;5094356;28;20432;-76
2022/07/21 10:31:27;;;;;;;5.60;5.10;;;26.70;34.30;;;;;;5093211;28;20433;-75
2022/07/21 10:33:59;;;;;;;5.43;5.03;;;26.80;34.40;;;;;;5098115;28;20458;-78
2022/07/21 10:36:44;;;;;;;5.43;4.37;;;27.10;34.20;;;;;;5083793;28;20479;-78
2022/07/21 10:39:31;;;;;;;5.93;4.90;;;27.50;33.40;;;;;;5103218;28;20488;-77
2022/07/21 10:42:01;;;;;;;5.70;4.90;;;27.60;33.30;;;;;;5099730;28;20488;-77
2022/07/21 10:44:47;;;;;;;4.20;3.80;;;27.40;33.00;;;;;;5098668;28;20935;-77
2022/07/21 10:47:19;;;;;;;5.27;4.67;;;27.10;32.10;;;;;;5101278;28;20523;-78
2022/07/21 10:49:52;;;;;;;7.87;4.50;;;27.30;31.60;;;;;;5101552;28;20485;-76
2022/07/21 10:53:00;;;;;;;4.37;3.97;;;27.40;30.70;;;;;;5085690;28;20419;-77
2022/07/21 10:55:28;;;;;;;5.90;5.30;;;27.60;31.50;;;;;;5104861;28;20550;-78
2022/07/21 10:58:16;;;;;;;6.73;4.63;;;27.40;32.20;;;;;;5115995;28;20477;-76
2022/07/21 11:00:51;;;;;;;5.13;4.73;;;27.20;33.10;;;;;;5098621;28;20430;-74
2022/07/21 11:03:26;;;;;;;6.97;4.93;;;27.60;31.60;;;;;;5096210;28;20403;-76
2022/07/21 11:06:21;;;;;;;5.43;4.93;;;27.70;30.40;;;;;;5096237;28;20436;-75
2022/07/21 11:08:50;;;;;;;5.57;5.07;;;27.90;31.70;;;;;;5114565;28;20444;-75
2022/07/21 11:11:19;;;;;;;5.40;4.37;;;27.80;31.60;;;;;;5101592;28;20448;-77
2022/07/21 11:14:00;;;;;;;4.53;4.13;;;27.40;32.70;;;;;;5109705;28;20510;-78
2022/07/21 11:17:09;;;;;;;5.00;4.60;;;27.30;31.70;;;;;;5089077;28;20533;-78
2022/07/21 11:19:45;;;;;;;7.60;4.73;;;27.70;31.60;;;;;;5089853;28;20466;-76
2022/07/21 11:22:14;;;;;;;4.30;4.00;;;28.10;29.70;;;;;;5094138;28;20497;-77
2022/07/21 11:24:42;;;;;;;4.70;4.30;;;28.30;29.30;;;;;;5097954;28;20449;-77
2022/07/21 11:27:11;;;;;;;3.60;3.40;;;28.40;29.20;;;;;;5099079;28;20473;-79
2022/07/21 11:29:41;;;;;;;4.40;4.00;;;28.40;28.30;;;;;;5095485;28;20454;-77
2022/07/21 11:32:10;;;;;;;4.80;4.27;;;28.40;29.40;;;;;;5098212;28;20461;-79
2022/07/21 11:34:47;;;;;;;4.23;3.83;;;28.20;29.50;;;;;;5097355;28;20486;-79
2022/07/21 11:37:16;;;;;;;4.90;3.90;;;28.20;28.80;;;;;;5099280;28;20514;-79
2022/07/21 11:39:43;;;;;;;4.30;3.90;;;28.20;28.90;;;;;;5100234;28;20473;-76
2022/07/21 11:42:12;;;;;;;7.93;4.20;;;28.10;28.60;;;;;;5100476;28;20458;-77
2022/07/21 11:44:40;;;;;;;4.30;3.90;;;28.00;29.10;;;;;;5082448;28;20865;-76
2022/07/21 11:47:10;;;;;;;4.10;3.73;;;28.00;29.80;;;;;;5097180;28;20439;-77
2022/07/21 11:49:37;;;;;;;4.93;4.53;;;28.10;29.30;;;;;;5079280;28;20501;-77
2022/07/21 11:52:08;;;;;;;4.40;4.00;;;28.00;29.60;;;;;;5093011;28;20635;-77
2022/07/21 11:54:37;;;;;;;4.30;3.90;;;27.90;29.40;;;;;;5089929;28;20490;-77
2022/07/21 11:57:06;;;;;;;4.07;3.53;;;28.10;28.70;;;;;;5104486;28;20451;-78
2022/07/21 11:59:33;;;;;;;5.97;4.37;;;28.20;28.80;;;;;;5107013;28;20463;-76
2022/07/21 12:02:03;;;;;;;3.83;3.53;;;28.20;28.70;;;;;;5105848;28;20432;-76
2022/07/21 12:04:49;;;;;;;4.20;3.90;;;28.40;28.10;;;;;;5089333;28;20455;-77
2022/07/21 12:07:21;;;;;;;4.37;3.57;;;28.40;27.80;;;;;;5096351;28;20421;-76
2022/07/21 12:09:50;;;;;;;3.53;3.23;;;28.20;28.30;;;;;;5098477;28;20433;-76
2022/07/21 12:12:32;;;;;;;6.00;3.73;;;28.30;28.30;;;;;;5101399;28;20454;-76
2022/07/21 12:15:11;;;;;;;3.60;3.33;;;28.50;28.00;;;;;;5105248;28;20577;-76
2022/07/21 12:17:40;;;;;;;7.30;3.97;;;28.60;26.30;;;;;;5109993;28;20460;-75
2022/07/21 12:20:08;;;;;;;5.03;3.93;;;28.60;26.30;;;;;;5118175;28;20461;-75
2022/07/21 12:22:43;;;;;;;4.17;3.87;;;28.80;26.40;;;;;;5113160;28;20538;-77
2022/07/21 12:25:11;;;;;;;4.30;3.90;;;28.50;26.20;;;;;;5101043;28;20531;-79
2022/07/21 12:27:40;;;;;;;4.73;3.80;;;28.70;26.30;;;;;;5106747;28;20457;-82
2022/07/21 12:30:09;;;;;;;3.80;3.50;;;29.00;26.50;;;;;;5099059;28;20445;-82
2022/07/21 12:33:02;;;;;;;5.90;3.83;;;29.00;26.50;;;;;;5106507;28;20492;-80
2022/07/21 12:35:29;;;;;;;4.13;3.73;;;28.70;26.30;;;;;;5085063;28;20972;-81
2022/07/21 12:38:03;;;;;;;4.43;3.63;;;28.30;26.10;;;;;;5087450;28;20434;-81
2022/07/21 12:40:31;;;;;;;4.60;4.00;;;28.40;26.10;;;;;;5091387;28;20507;-79
2022/07/21 12:43:10;;;;;;;4.37;4.07;;;28.50;26.40;;;;;;5107554;28;20523;-80
2022/07/21 12:45:49;;;;;;;4.50;4.07;;;28.70;26.30;;;;;;5090308;28;20962;-81
2022/07/21 12:48:18;;;;;;;4.40;4.00;;;28.50;26.40;;;;;;5087867;28;20466;-82